Time;durP1;ratioP1;P1;durP2;ratioP2;P2;SDS_P1;SDS_P2;PMS_P1;PMS_P2;Temp;Humidity;BMP_temperature;BMP_pressure;BME280_temperature;BME280_humidity;BME280_pressure;Samples;Min_cycle;Max_cycle;Signal;HPM_P1;HPM_P2
2020/12/04 00:01:29;;;;;;;7.80;6.30;;;5.20;99.90;;;;;;5018077;28;20198;-71
2020/12/04 00:03:54;;;;;;;8.50;7.10;;;5.30;99.90;;;;;;5035897;28;20167;-73
2020/12/04 00:06:20;;;;;;;7.27;6.23;;;5.30;99.90;;;;;;5035532;28;20183;-72
2020/12/04 00:08:46;;;;;;;7.50;5.90;;;5.30;99.90;;;;;;5030091;28;20307;-72
2020/12/04 00:11:11;;;;;;;7.47;6.60;;;5.20;99.90;;;;;;5017560;28;20180;-71
2020/12/04 00:13:37;;;;;;;8.77;6.83;;;5.20;99.90;;;;;;5021376;28;20188;-71
2020/12/04 00:16:02;;;;;;;8.87;6.53;;;5.30;99.90;;;;;;5023042;28;20646;-72
2020/12/04 00:18:28;;;;;;;7.23;6.27;;;5.30;99.90;;;;;;5034875;28;20524;-72
2020/12/04 00:20:53;;;;;;;7.03;5.90;;;5.30;99.90;;;;;;5035363;28;20621;-72
2020/12/04 00:23:19;;;;;;;6.73;6.00;;;5.30;99.90;;;;;;5034543;28;20208;-71
2020/12/04 00:25:44;;;;;;;7.30;5.50;;;5.20;99.90;;;;;;5035309;28;20207;-72
2020/12/04 00:28:10;;;;;;;7.83;6.50;;;5.30;99.90;;;;;;5035303;28;20270;-72
2020/12/04 00:30:36;;;;;;;8.13;5.67;;;5.30;99.90;;;;;;5025520;28;20674;-72
2020/12/04 00:33:03;;;;;;;5.80;4.90;;;5.30;99.90;;;;;;5016026;28;20425;-72
2020/12/04 00:35:28;;;;;;;6.17;5.57;;;5.40;99.90;;;;;;5016095;28;20183;-72
2020/12/04 00:37:54;;;;;;;8.23;6.10;;;5.30;99.90;;;;;;5018763;28;20433;-72
2020/12/04 00:40:19;;;;;;;6.80;5.97;;;5.40;99.90;;;;;;5035092;28;20500;-73
2020/12/04 00:42:46;;;;;;;6.50;5.90;;;5.30;99.90;;;;;;5034795;28;20175;-72
2020/12/04 00:45:15;;;;;;;6.77;6.00;;;5.40;99.90;;;;;;5022884;28;20223;-73
2020/12/04 00:47:41;;;;;;;6.67;5.70;;;5.40;99.90;;;;;;5015709;28;20859;-71
2020/12/04 00:50:07;;;;;;;6.93;5.67;;;5.40;99.90;;;;;;5015814;28;20442;-72
2020/12/04 00:52:32;;;;;;;6.70;5.50;;;5.50;99.90;;;;;;5029842;28;20796;-73
2020/12/04 00:54:58;;;;;;;6.80;5.60;;;5.50;99.90;;;;;;5034784;28;20206;-73
2020/12/04 00:57:23;;;;;;;7.27;5.60;;;5.50;99.90;;;;;;5032453;28;20182;-73
2020/12/04 00:59:49;;;;;;;7.23;5.93;;;5.50;99.90;;;;;;5015499;28;20203;-72
2020/12/04 01:02:15;;;;;;;6.43;5.63;;;5.50;99.90;;;;;;5015732;28;20574;-73
2020/12/04 01:04:41;;;;;;;6.63;5.83;;;5.60;99.90;;;;;;5019936;28;20193;-73
2020/12/04 01:07:07;;;;;;;5.80;5.20;;;5.60;99.90;;;;;;5032793;28;20422;-73
2020/12/04 01:09:33;;;;;;;6.03;5.43;;;5.60;99.90;;;;;;5033091;28;20286;-71
2020/12/04 01:11:58;;;;;;;6.07;5.47;;;5.60;99.90;;;;;;5027333;28;20176;-70
2020/12/04 01:14:24;;;;;;;6.30;5.70;;;5.60;99.90;;;;;;5014134;28;20924;-71
2020/12/04 01:16:50;;;;;;;8.73;6.20;;;5.70;99.90;;;;;;5015386;28;20195;-71
2020/12/04 01:19:15;;;;;;;7.20;5.60;;;5.70;99.90;;;;;;5023158;28;20221;-71
2020/12/04 01:21:41;;;;;;;7.13;5.43;;;5.70;99.90;;;;;;5034246;28;20222;-71
2020/12/04 01:24:06;;;;;;;6.47;5.83;;;5.70;99.90;;;;;;5034233;28;20213;-71
2020/12/04 01:26:32;;;;;;;6.73;5.40;;;5.70;99.90;;;;;;5025015;28;20290;-71
2020/12/04 01:28:57;;;;;;;6.50;5.63;;;5.70;99.90;;;;;;5014776;28;20523;-71
2020/12/04 01:31:23;;;;;;;6.00;5.10;;;5.60;99.90;;;;;;5015418;28;20187;-71
2020/12/04 01:33:48;;;;;;;6.53;5.50;;;5.70;99.90;;;;;;5025878;28;20175;-71
2020/12/04 01:36:15;;;;;;;6.13;5.20;;;5.60;99.90;;;;;;5034248;28;20186;-71
2020/12/04 01:38:41;;;;;;;7.00;5.60;;;5.70;99.90;;;;;;5016660;28;20210;-72
2020/12/04 01:41:07;;;;;;;5.60;5.07;;;5.70;99.90;;;;;;5026715;28;20540;-71
2020/12/04 01:43:32;;;;;;;5.47;4.70;;;5.70;99.90;;;;;;5034664;28;20500;-71
2020/12/04 01:45:59;;;;;;;4.80;4.20;;;5.70;99.90;;;;;;5035425;28;20228;-71
2020/12/04 01:48:25;;;;;;;5.40;4.60;;;5.70;99.90;;;;;;5024088;28;20196;-71
2020/12/04 01:50:52;;;;;;;6.07;5.47;;;5.80;99.90;;;;;;5029427;28;20441;-71
2020/12/04 01:53:22;;;;;;;6.43;5.20;;;5.80;99.90;;;;;;5033978;28;20517;-71
2020/12/04 01:55:48;;;;;;;5.73;4.83;;;5.80;99.90;;;;;;5017830;28;20422;-71
2020/12/04 01:58:17;;;;;;;5.73;4.83;;;5.80;99.90;;;;;;5006316;28;20452;-71
2020/12/04 02:00:43;;;;;;;6.13;5.00;;;5.80;99.90;;;;;;5013268;28;20784;-71
2020/12/04 02:03:10;;;;;;;5.73;5.20;;;5.80;99.90;;;;;;5030558;28;20421;-71
2020/12/04 02:05:41;;;;;;;5.80;4.63;;;5.80;99.90;;;;;;5033908;28;20506;-71
2020/12/04 02:08:16;;;;;;;5.30;4.23;;;5.80;99.90;;;;;;5032511;28;20448;-71
2020/12/04 02:10:48;;;;;;;5.10;4.60;;;5.90;99.90;;;;;;5014525;28;20433;-71
2020/12/04 02:13:14;;;;;;;5.03;4.53;;;5.80;99.90;;;;;;5014143;28;20438;-71
2020/12/04 02:15:40;;;;;;;4.30;3.90;;;5.90;99.90;;;;;;5018296;28;20441;-71
2020/12/04 02:18:07;;;;;;;5.40;4.70;;;5.90;99.90;;;;;;5033014;28;20452;-71
2020/12/04 02:20:35;;;;;;;6.00;5.10;;;5.90;99.90;;;;;;5032832;28;20461;-71
2020/12/04 02:23:01;;;;;;;5.10;4.60;;;5.80;99.90;;;;;;5027081;28;20422;-71
2020/12/04 02:25:27;;;;;;;5.77;5.20;;;5.90;99.90;;;;;;5013635;28;20449;-72
2020/12/04 02:27:52;;;;;;;5.10;4.70;;;5.90;99.90;;;;;;5013672;28;20520;-72
2020/12/04 02:30:27;;;;;;;5.37;4.87;;;5.90;99.90;;;;;;5014020;28;20446;-71
2020/12/04 02:32:53;;;;;;;4.87;4.30;;;5.90;99.90;;;;;;5007040;28;20176;-71
2020/12/04 02:35:18;;;;;;;4.43;4.03;;;5.80;99.90;;;;;;5014398;28;20428;-71
2020/12/04 02:37:44;;;;;;;5.00;4.60;;;5.80;99.90;;;;;;5023379;28;20743;-71
2020/12/04 02:40:09;;;;;;;5.03;4.53;;;5.80;99.90;;;;;;5027554;28;20219;-71
2020/12/04 02:42:35;;;;;;;6.00;4.80;;;5.80;99.90;;;;;;5013591;28;20533;-71
2020/12/04 02:45:00;;;;;;;6.10;4.80;;;5.80;99.90;;;;;;5024522;28;20236;-72
2020/12/04 02:47:26;;;;;;;5.40;4.90;;;5.80;99.90;;;;;;5032629;28;20580;-71
2020/12/04 02:49:52;;;;;;;5.67;5.07;;;5.80;99.90;;;;;;5036083;28;20201;-72
2020/12/04 02:52:24;;;;;;;6.60;4.90;;;5.80;99.90;;;;;;5020311;28;20743;-71
2020/12/04 02:54:50;;;;;;;5.50;4.73;;;5.80;99.90;;;;;;5014136;28;20433;-71
2020/12/04 02:57:16;;;;;;;4.57;3.97;;;5.80;99.90;;;;;;5014942;28;20426;-71
2020/12/04 02:59:42;;;;;;;5.23;4.70;;;5.80;99.90;;;;;;5031772;28;20199;-71
2020/12/04 03:02:09;;;;;;;5.53;5.00;;;5.80;99.90;;;;;;5031881;28;20215;-71
2020/12/04 03:04:35;;;;;;;6.63;4.57;;;5.70;99.90;;;;;;5028007;28;20503;-71
2020/12/04 03:07:00;;;;;;;5.13;4.60;;;5.70;99.90;;;;;;5014962;28;20560;-71
2020/12/04 03:09:26;;;;;;;5.03;4.30;;;5.70;99.90;;;;;;5014171;28;20450;-72
2020/12/04 03:11:54;;;;;;;5.90;4.50;;;5.70;99.90;;;;;;5020265;28;20645;-72
2020/12/04 03:14:20;;;;;;;5.67;4.73;;;5.70;99.90;;;;;;5033010;28;20282;-71
2020/12/04 03:16:45;;;;;;;4.20;3.80;;;5.70;99.90;;;;;;5032961;28;20916;-71
2020/12/04 03:19:11;;;;;;;6.50;4.93;;;5.80;99.90;;;;;;5024457;28;20458;-71
2020/12/04 03:21:36;;;;;;;4.67;4.20;;;5.70;99.90;;;;;;5013633;28;20203;-71
2020/12/04 03:24:02;;;;;;;5.27;4.37;;;5.70;99.90;;;;;;5013846;28;20545;-71
2020/12/04 03:26:27;;;;;;;5.07;4.60;;;5.70;99.90;;;;;;5022845;28;20221;-71
2020/12/04 03:28:53;;;;;;;5.03;4.53;;;5.70;99.90;;;;;;5033082;28;20210;-71
2020/12/04 03:31:18;;;;;;;6.07;4.80;;;5.70;99.90;;;;;;5033038;28;20262;-71
2020/12/04 03:33:44;;;;;;;6.53;4.67;;;5.70;99.90;;;;;;5022143;28;20608;-72
2020/12/04 03:36:09;;;;;;;6.47;4.73;;;5.70;99.90;;;;;;5012838;28;20277;-72
2020/12/04 03:38:35;;;;;;;5.80;4.50;;;5.70;99.90;;;;;;5013270;28;20557;-71
2020/12/04 03:41:00;;;;;;;5.07;4.57;;;5.70;99.90;;;;;;5024869;28;20277;-72
2020/12/04 03:43:26;;;;;;;4.33;4.00;;;5.70;99.90;;;;;;5032998;28;20179;-71
2020/12/04 03:45:51;;;;;;;5.23;4.50;;;5.70;99.90;;;;;;5032365;28;20184;-72
2020/12/04 03:48:17;;;;;;;4.40;4.00;;;5.80;99.90;;;;;;5019515;28;20191;-71
2020/12/04 03:50:42;;;;;;;5.27;4.67;;;5.80;99.90;;;;;;5023450;28;20171;-71
2020/12/04 03:53:08;;;;;;;4.80;4.30;;;5.80;99.90;;;;;;5032395;28;20258;-72
2020/12/04 03:55:33;;;;;;;5.70;4.63;;;5.80;99.90;;;;;;5032876;28;20182;-72
2020/12/04 03:57:59;;;;;;;4.77;4.37;;;5.80;99.90;;;;;;5015224;28;20179;-72
2020/12/04 04:00:25;;;;;;;6.00;5.40;;;5.80;99.90;;;;;;5013236;28;20223;-72
2020/12/04 04:02:51;;;;;;;6.50;4.17;;;5.90;99.90;;;;;;5028721;28;20551;-72
2020/12/04 04:05:17;;;;;;;5.50;4.60;;;5.90;99.90;;;;;;5013338;28;20434;-72
2020/12/04 04:07:42;;;;;;;4.00;3.70;;;5.90;99.90;;;;;;5013313;28;20922;-73
2020/12/04 04:10:08;;;;;;;5.00;4.50;;;5.90;99.90;;;;;;5013414;28;20262;-73
2020/12/04 04:12:33;;;;;;;4.23;3.83;;;5.90;99.90;;;;;;5032369;28;20175;-73
2020/12/04 04:14:59;;;;;;;5.10;4.60;;;5.90;99.90;;;;;;5025522;28;20237;-73
2020/12/04 04:17:25;;;;;;;5.13;4.57;;;5.90;99.90;;;;;;5015035;28;20193;-73
2020/12/04 04:19:51;;;;;;;6.10;5.03;;;5.90;99.90;;;;;;5032052;28;20515;-72
2020/12/04 04:22:17;;;;;;;6.50;5.17;;;5.90;99.90;;;;;;5031918;28;20507;-73
2020/12/04 04:24:42;;;;;;;4.57;4.17;;;5.90;99.90;;;;;;5028959;28;20273;-72
2020/12/04 04:27:08;;;;;;;6.43;5.50;;;6.00;99.90;;;;;;5011714;28;20186;-73
2020/12/04 04:29:33;;;;;;;6.40;5.10;;;6.00;99.90;;;;;;5013013;28;20203;-72
2020/12/04 04:31:59;;;;;;;5.97;4.67;;;6.00;99.90;;;;;;5017711;28;20440;-72
2020/12/04 04:34:25;;;;;;;5.53;4.80;;;6.00;99.90;;;;;;5031693;28;20628;-72
2020/12/04 04:36:50;;;;;;;6.30;5.10;;;6.00;99.90;;;;;;5032038;28;20182;-72
2020/12/04 04:39:16;;;;;;;5.03;4.53;;;6.00;99.90;;;;;;5030706;28;20202;-73
2020/12/04 04:41:41;;;;;;;6.23;5.13;;;6.00;99.90;;;;;;5031858;28;20282;-72
2020/12/04 04:44:11;;;;;;;5.47;4.97;;;6.00;99.90;;;;;;5032397;28;20198;-73
2020/12/04 04:46:46;;;;;;;6.20;5.17;;;6.00;99.90;;;;;;5023512;28;20643;-73
2020/12/04 04:49:26;;;;;;;6.23;5.10;;;6.00;99.90;;;;;;5015065;28;20954;-72
2020/12/04 04:51:53;;;;;;;6.57;5.10;;;6.00;99.90;;;;;;5016598;28;20429;-72
2020/12/04 04:54:20;;;;;;;5.33;4.80;;;6.00;99.90;;;;;;5030301;28;20906;-72
2020/12/04 04:56:52;;;;;;;5.13;4.40;;;6.00;99.90;;;;;;5035067;28;20494;-72
2020/12/04 04:59:22;;;;;;;7.03;6.33;;;6.10;99.90;;;;;;5017679;28;20517;-71
2020/12/04 05:01:49;;;;;;;6.73;4.80;;;6.00;99.90;;;;;;5016428;28;20466;-72
2020/12/04 05:04:16;;;;;;;5.80;5.00;;;6.10;99.90;;;;;;5016193;28;20974;-72
2020/12/04 05:06:42;;;;;;;6.50;4.27;;;6.10;99.90;;;;;;5016315;28;20425;-72
2020/12/04 05:09:14;;;;;;;6.10;5.00;;;6.10;99.90;;;;;;5015270;28;20454;-72
2020/12/04 05:11:54;;;;;;;5.20;4.43;;;6.10;99.90;;;;;;5023550;28;20418;-72
2020/12/04 05:14:23;;;;;;;8.77;4.93;;;6.10;99.90;;;;;;5035130;28;20458;-72
2020/12/04 05:16:54;;;;;;;5.40;4.53;;;6.10;99.90;;;;;;5035375;28;20421;-72
2020/12/04 05:19:34;;;;;;;4.93;4.43;;;6.10;99.90;;;;;;5022601;28;20438;-72
2020/12/04 05:22:18;;;;;;;6.17;4.27;;;6.10;99.90;;;;;;5015761;28;20458;-72
2020/12/04 05:24:45;;;;;;;5.67;4.87;;;6.10;99.90;;;;;;5014871;28;20413;-72
2020/12/04 05:27:24;;;;;;;4.50;3.93;;;6.10;99.90;;;;;;5033913;28;20973;-72
2020/12/04 05:29:55;;;;;;;5.50;4.17;;;6.10;99.90;;;;;;5036885;28;20516;-72
2020/12/04 05:32:22;;;;;;;5.20;4.27;;;6.10;99.90;;;;;;5056246;28;20414;-72
2020/12/04 05:34:48;;;;;;;3.83;3.43;;;6.10;99.90;;;;;;5048692;28;20500;-72
2020/12/04 05:37:17;;;;;;;6.03;4.07;;;6.10;99.90;;;;;;5035359;28;20422;-72
2020/12/04 05:39:44;;;;;;;3.60;3.30;;;6.20;99.90;;;;;;5029338;28;20792;-72
2020/12/04 05:42:10;;;;;;;4.97;4.13;;;6.30;99.90;;;;;;5016347;28;20466;-72
2020/12/04 05:44:52;;;;;;;4.40;4.00;;;6.30;99.90;;;;;;5025383;28;20417;-72
2020/12/04 05:47:19;;;;;;;4.47;3.80;;;6.30;99.90;;;;;;5024070;28;20221;-72
2020/12/04 05:49:45;;;;;;;4.30;3.90;;;6.30;99.90;;;;;;5015438;28;20565;-73
2020/12/04 05:52:12;;;;;;;4.90;3.87;;;6.30;99.90;;;;;;5024013;28;20885;-73
2020/12/04 05:54:38;;;;;;;4.47;4.07;;;6.30;99.90;;;;;;5021717;28;20621;-73
2020/12/04 05:57:07;;;;;;;4.30;3.90;;;6.30;99.90;;;;;;5015010;28;20795;-73
2020/12/04 05:59:33;;;;;;;4.30;3.90;;;6.30;99.90;;;;;;5014093;28;20521;-74
2020/12/04 06:01:58;;;;;;;4.10;3.37;;;6.30;99.90;;;;;;5015794;28;20466;-73
2020/12/04 06:04:24;;;;;;;3.60;3.30;;;6.30;99.90;;;;;;5015768;28;20793;-72
2020/12/04 06:06:50;;;;;;;3.33;3.03;;;6.30;99.90;;;;;;5015781;28;20179;-73
2020/12/04 06:09:16;;;;;;;3.80;3.40;;;6.40;99.90;;;;;;5022221;28;20235;-73
2020/12/04 06:11:44;;;;;;;4.00;3.70;;;6.40;99.90;;;;;;5015451;28;20511;-74
2020/12/04 06:14:17;;;;;;;4.20;3.60;;;6.40;99.90;;;;;;5014989;28;20445;-74
2020/12/04 06:16:50;;;;;;;3.70;3.33;;;6.40;99.90;;;;;;5007390;28;20473;-72
2020/12/04 06:19:32;;;;;;;4.53;4.00;;;6.40;99.90;;;;;;4993771;28;20991;-72
2020/12/04 06:22:15;;;;;;;3.30;3.00;;;6.40;99.90;;;;;;5021101;28;20459;-72
2020/12/04 06:24:53;;;;;;;3.10;2.90;;;6.40;99.90;;;;;;5034984;28;20422;-72
2020/12/04 06:27:36;;;;;;;3.53;3.23;;;6.50;99.90;;;;;;5034529;28;20564;-72
2020/12/04 06:30:03;;;;;;;3.67;3.37;;;6.50;99.90;;;;;;5028076;28;20456;-73
2020/12/04 06:32:37;;;;;;;3.47;3.03;;;6.50;99.90;;;;;;5020486;28;20426;-73
2020/12/04 06:35:05;;;;;;;3.57;3.27;;;6.50;99.90;;;;;;5019913;28;20562;-73
2020/12/04 06:37:39;;;;;;;4.33;3.53;;;6.50;99.90;;;;;;5017313;28;20482;-73
2020/12/04 06:40:27;;;;;;;3.83;3.53;;;6.50;99.90;;;;;;5014375;28;20557;-73
2020/12/04 06:42:55;;;;;;;3.20;2.90;;;6.40;99.90;;;;;;5010383;28;20459;-72
2020/12/04 06:45:20;;;;;;;4.37;3.97;;;6.50;99.90;;;;;;5033486;28;20911;-72
2020/12/04 06:48:09;;;;;;;4.60;3.67;;;6.50;99.90;;;;;;5025397;28;20429;-75
2020/12/04 06:50:42;;;;;;;3.30;3.00;;;6.50;99.90;;;;;;5032533;28;20433;-73
2020/12/04 06:53:09;;;;;;;4.43;3.20;;;6.50;99.90;;;;;;5020392;28;20418;-73
2020/12/04 06:55:39;;;;;;;3.63;3.03;;;6.50;99.90;;;;;;5035106;28;20417;-73
2020/12/04 06:58:06;;;;;;;3.10;2.87;;;6.50;99.90;;;;;;5025315;28;20427;-73
2020/12/04 07:00:32;;;;;;;3.30;3.00;;;6.60;99.90;;;;;;5015322;28;20437;-73
2020/12/04 07:02:59;;;;;;;3.53;2.93;;;6.60;99.90;;;;;;5024641;28;20429;-73
2020/12/04 07:05:26;;;;;;;3.73;2.87;;;6.60;99.90;;;;;;5028181;28;20421;-73
2020/12/04 07:08:02;;;;;;;3.07;2.87;;;6.60;99.90;;;;;;5016744;28;20438;-73
2020/12/04 07:10:30;;;;;;;3.80;3.40;;;6.60;99.90;;;;;;5029349;28;20542;-73
2020/12/04 07:12:58;;;;;;;3.33;3.03;;;6.70;99.90;;;;;;5025175;28;20411;-73
2020/12/04 07:15:24;;;;;;;3.37;3.07;;;6.70;99.90;;;;;;5015232;28;20981;-73
2020/12/04 07:17:49;;;;;;;4.33;2.90;;;6.70;99.90;;;;;;5015880;28;20415;-72
2020/12/04 07:20:15;;;;;;;2.73;2.47;;;6.60;99.90;;;;;;5020835;28;20732;-72
2020/12/04 07:22:40;;;;;;;3.00;2.80;;;6.70;99.90;;;;;;5015339;28;20213;-73
2020/12/04 07:25:06;;;;;;;2.70;2.50;;;6.70;99.90;;;;;;5018869;28;20175;-73
2020/12/04 07:27:32;;;;;;;3.20;2.90;;;6.70;99.90;;;;;;5026152;28;20216;-73
2020/12/04 07:29:58;;;;;;;2.97;2.67;;;6.70;99.90;;;;;;5033321;28;20195;-73
2020/12/04 07:32:24;;;;;;;3.20;2.90;;;6.70;99.90;;;;;;5034850;28;20175;-73
2020/12/04 07:34:50;;;;;;;2.97;2.77;;;6.70;99.90;;;;;;5018356;28;20435;-73
2020/12/04 07:37:17;;;;;;;2.70;2.50;;;6.70;99.90;;;;;;5020343;28;20940;-73
2020/12/04 07:39:43;;;;;;;6.20;3.10;;;6.70;99.90;;;;;;5021595;28;20461;-74
2020/12/04 07:42:12;;;;;;;2.40;2.30;;;6.70;99.90;;;;;;5027169;28;20465;-73
2020/12/04 07:44:50;;;;;;;3.63;2.67;;;6.70;99.90;;;;;;5032180;28;20460;-73
2020/12/04 07:47:17;;;;;;;2.80;2.27;;;6.70;99.90;;;;;;5029924;28;20418;-73
2020/12/04 07:49:48;;;;;;;3.13;2.83;;;6.80;99.90;;;;;;5013746;28;20549;-73
2020/12/04 07:52:21;;;;;;;3.03;2.70;;;6.80;99.90;;;;;;5024876;28;20431;-73
2020/12/04 07:54:58;;;;;;;2.80;2.60;;;6.90;99.90;;;;;;5026417;28;20445;-73
2020/12/04 07:57:48;;;;;;;3.00;2.77;;;6.80;99.90;;;;;;5014951;28;20442;-73
2020/12/04 08:00:15;;;;;;;2.50;2.30;;;6.80;99.90;;;;;;5031258;28;20449;-73
2020/12/04 08:02:40;;;;;;;3.67;2.57;;;6.90;99.90;;;;;;5018881;28;20466;-73
2020/12/04 08:05:06;;;;;;;2.83;2.60;;;6.90;99.90;;;;;;5014276;28;20654;-73
2020/12/04 08:07:34;;;;;;;2.67;2.47;;;6.90;99.90;;;;;;5012942;28;20209;-73
2020/12/04 08:10:00;;;;;;;2.57;2.37;;;6.90;99.90;;;;;;5029294;28;20500;-73
2020/12/04 08:12:32;;;;;;;2.30;2.10;;;6.90;99.90;;;;;;5006435;28;20959;-73
2020/12/04 08:14:59;;;;;;;2.60;2.40;;;7.00;99.90;;;;;;5025082;28;20426;-72
2020/12/04 08:17:29;;;;;;;3.53;3.27;;;7.00;99.90;;;;;;5015628;28;20422;-73
2020/12/04 08:19:56;;;;;;;2.73;2.53;;;7.00;99.90;;;;;;5013969;28;20453;-73
2020/12/04 08:22:29;;;;;;;2.40;2.20;;;7.00;99.90;;;;;;5023674;28;20496;-73
2020/12/04 08:27:29;;;;;;;2.60;2.40;;;7.10;99.90;;;;;;5017888;28;20947;-73
2020/12/04 08:30:08;;;;;;;2.20;2.00;;;7.10;99.90;;;;;;5017862;28;20442;-73
2020/12/04 08:32:34;;;;;;;2.53;2.30;;;7.10;99.90;;;;;;5028318;28;20453;-73
2020/12/04 08:35:11;;;;;;;2.97;2.00;;;7.10;99.90;;;;;;5029643;28;20442;-73
2020/12/04 08:37:37;;;;;;;2.40;2.20;;;7.10;99.90;;;;;;5020841;28;20447;-73
2020/12/04 08:40:04;;;;;;;2.40;2.20;;;7.10;99.90;;;;;;5036650;28;20445;-73
2020/12/04 08:42:34;;;;;;;3.20;2.50;;;7.10;99.90;;;;;;5035865;28;20306;-73
2020/12/04 08:45:07;;;;;;;2.13;1.93;;;7.10;99.90;;;;;;5022817;28;20899;-73
2020/12/04 08:47:34;;;;;;;2.77;2.57;;;7.10;99.90;;;;;;5035493;28;20471;-73
2020/12/04 08:50:12;;;;;;;2.50;2.30;;;7.10;99.90;;;;;;5022476;28;20442;-73
2020/12/04 08:52:45;;;;;;;2.30;2.10;;;7.20;99.90;;;;;;5035792;28;20429;-73
2020/12/04 08:55:13;;;;;;;2.07;1.97;;;7.20;99.90;;;;;;5035079;28;21013;-73
2020/12/04 08:57:39;;;;;;;2.00;1.90;;;7.20;99.90;;;;;;5028710;28;20567;-73
2020/12/04 09:00:07;;;;;;;2.40;1.97;;;7.20;99.90;;;;;;5036932;28;20457;-73
2020/12/04 09:02:34;;;;;;;2.10;1.90;;;7.20;99.90;;;;;;5037438;28;20477;-74
2020/12/04 09:05:00;;;;;;;1.80;1.70;;;7.30;99.90;;;;;;5037383;28;20504;-74
2020/12/04 09:07:25;;;;;;;2.23;2.10;;;7.30;99.90;;;;;;5037513;28;20445;-74
2020/12/04 09:09:51;;;;;;;2.50;2.30;;;7.30;99.90;;;;;;5053153;28;20227;-74
2020/12/04 09:12:16;;;;;;;2.30;2.10;;;7.40;99.90;;;;;;5050000;28;20229;-74
2020/12/04 09:14:42;;;;;;;2.00;1.90;;;7.30;99.90;;;;;;5055727;28;20185;-73
2020/12/04 09:17:07;;;;;;;3.33;2.10;;;7.40;99.90;;;;;;5029692;28;20195;-74
2020/12/04 09:19:33;;;;;;;2.10;2.00;;;7.30;99.90;;;;;;5035103;28;20252;-73
2020/12/04 09:21:58;;;;;;;2.37;2.17;;;7.30;99.90;;;;;;5032773;28;20709;-73
2020/12/04 09:24:25;;;;;;;2.50;2.40;;;7.40;99.90;;;;;;5016514;28;20181;-74
2020/12/04 09:26:50;;;;;;;2.37;2.17;;;7.40;99.90;;;;;;5016772;28;20183;-73
2020/12/04 09:29:16;;;;;;;2.43;2.23;;;7.40;99.90;;;;;;5019657;28;20524;-73
2020/12/04 09:31:41;;;;;;;2.10;2.00;;;7.40;99.90;;;;;;5035539;28;20668;-73
2020/12/04 09:34:07;;;;;;;1.90;1.80;;;7.40;99.90;;;;;;5034347;28;20712;-74
2020/12/04 09:36:32;;;;;;;3.27;2.50;;;7.40;99.90;;;;;;5025591;28;20509;-73
2020/12/04 09:38:58;;;;;;;1.80;1.70;;;7.40;99.90;;;;;;5027262;28;20214;-73
2020/12/04 09:41:23;;;;;;;2.20;2.00;;;7.40;99.90;;;;;;5023119;28;20203;-73
2020/12/04 09:43:49;;;;;;;2.13;1.93;;;7.50;99.90;;;;;;5024547;28;20179;-72
2020/12/04 09:46:14;;;;;;;2.03;1.90;;;7.50;99.90;;;;;;5033872;28;20628;-74
2020/12/04 09:48:40;;;;;;;1.80;1.70;;;7.50;99.90;;;;;;5034077;28;20198;-74
2020/12/04 09:51:05;;;;;;;1.90;1.80;;;7.50;99.90;;;;;;5033647;28;20222;-73
2020/12/04 09:53:31;;;;;;;2.17;2.07;;;7.50;99.90;;;;;;5020592;28;20176;-75
2020/12/04 09:55:56;;;;;;;2.20;2.00;;;7.50;99.90;;;;;;5017646;28;20207;-74
2020/12/04 09:58:22;;;;;;;2.10;2.00;;;7.60;99.90;;;;;;5034165;28;20620;-74
2020/12/04 10:00:47;;;;;;;1.90;1.80;;;7.50;99.90;;;;;;5033997;28;20190;-74
2020/12/04 10:03:13;;;;;;;2.00;1.90;;;7.50;99.90;;;;;;5029192;28;20186;-74
2020/12/04 10:05:38;;;;;;;1.87;1.77;;;7.50;99.90;;;;;;5034640;28;20191;-74
2020/12/04 10:08:04;;;;;;;2.57;2.37;;;7.50;99.90;;;;;;5031963;28;20540;-74
2020/12/04 10:10:29;;;;;;;2.83;2.53;;;7.50;99.90;;;;;;5033804;28;20309;-74
2020/12/04 10:12:55;;;;;;;2.33;2.00;;;7.50;99.90;;;;;;5032805;28;20186;-73
2020/12/04 10:15:20;;;;;;;3.03;2.60;;;7.50;99.90;;;;;;5022107;28;20273;-73
2020/12/04 10:17:46;;;;;;;2.30;2.10;;;7.60;99.90;;;;;;5029143;28;20577;-73
2020/12/04 10:20:11;;;;;;;1.90;1.80;;;7.60;99.90;;;;;;5032969;28;20242;-73
2020/12/04 10:22:37;;;;;;;2.40;1.93;;;7.60;99.90;;;;;;5033694;28;20247;-73
2020/12/04 10:25:03;;;;;;;3.60;2.43;;;7.70;99.90;;;;;;5017881;28;20285;-73
2020/12/04 10:27:28;;;;;;;2.17;1.83;;;7.70;99.90;;;;;;5033269;28;20193;-73
2020/12/04 10:29:54;;;;;;;2.03;1.93;;;7.80;99.90;;;;;;5026347;28;20271;-73
2020/12/04 10:32:20;;;;;;;2.10;1.93;;;7.80;99.90;;;;;;5022711;28;20693;-73
2020/12/04 10:34:47;;;;;;;2.07;1.87;;;7.80;99.90;;;;;;5014664;28;20182;-73
2020/12/04 10:37:12;;;;;;;2.43;2.23;;;7.90;99.90;;;;;;5030098;28;20452;-74
2020/12/04 10:39:38;;;;;;;2.07;1.90;;;8.00;99.90;;;;;;5014169;28;20748;-74
2020/12/04 10:42:03;;;;;;;2.07;1.97;;;8.10;99.90;;;;;;5014209;28;20200;-74
2020/12/04 10:44:32;;;;;;;2.70;1.70;;;8.10;99.90;;;;;;5022169;28;20197;-74
2020/12/04 10:47:01;;;;;;;1.90;1.60;;;8.10;99.90;;;;;;5014708;28;20187;-73
2020/12/04 10:49:26;;;;;;;2.10;1.73;;;8.20;99.90;;;;;;5033649;28;20469;-73
2020/12/04 10:51:57;;;;;;;1.83;1.73;;;8.20;99.90;;;;;;5027397;28;20432;-73
2020/12/04 10:54:23;;;;;;;2.30;2.10;;;8.20;99.90;;;;;;5033885;28;20184;-73
2020/12/04 10:56:53;;;;;;;1.80;1.70;;;8.20;99.90;;;;;;5033298;28;20930;-74
2020/12/04 10:59:19;;;;;;;1.93;1.73;;;8.20;99.90;;;;;;5014824;28;20283;-73
2020/12/04 11:01:49;;;;;;;3.23;2.27;;;8.20;99.90;;;;;;5013837;28;20516;-74
2020/12/04 11:07:04;;;;;;;1.73;1.60;;;8.30;99.90;;;;;;5034812;28;20479;-74
2020/12/04 11:09:31;;;;;;;1.70;1.47;;;8.30;99.90;;;;;;5015196;28;20474;-72
2020/12/04 11:11:57;;;;;;;1.77;1.67;;;8.40;99.90;;;;;;5020159;28;20888;-74
2020/12/04 11:14:22;;;;;;;1.70;1.60;;;8.30;99.90;;;;;;5032427;28;20487;-73
2020/12/04 11:16:48;;;;;;;2.13;1.90;;;8.30;99.90;;;;;;5033578;28;20256;-73
2020/12/04 11:19:14;;;;;;;2.23;1.90;;;8.30;99.90;;;;;;5023964;28;20212;-73
2020/12/04 11:21:40;;;;;;;1.70;1.40;;;8.40;99.90;;;;;;5033534;28;20187;-73
2020/12/04 11:24:06;;;;;;;1.60;1.50;;;8.30;99.90;;;;;;5034099;28;20887;-73
2020/12/04 11:26:31;;;;;;;2.77;1.90;;;8.40;99.90;;;;;;5023953;28;20203;-73
2020/12/04 11:28:57;;;;;;;2.20;1.80;;;8.50;99.90;;;;;;5014513;28;20265;-73
2020/12/04 11:31:23;;;;;;;1.80;1.70;;;8.50;99.90;;;;;;5014958;28;20248;-73
2020/12/04 11:33:48;;;;;;;2.27;1.60;;;8.50;99.90;;;;;;5026263;28;20174;-73
2020/12/04 11:36:14;;;;;;;2.00;1.43;;;8.50;99.90;;;;;;5026015;28;20271;-73
2020/12/04 11:38:39;;;;;;;1.63;1.53;;;8.50;99.90;;;;;;5032613;28;20611;-73
2020/12/04 11:41:06;;;;;;;1.70;1.60;;;8.50;99.90;;;;;;5019858;28;20685;-73
2020/12/04 11:43:32;;;;;;;1.70;1.60;;;8.50;99.90;;;;;;5015365;28;20243;-73
2020/12/04 11:45:58;;;;;;;1.90;1.70;;;8.60;99.90;;;;;;5032785;28;20980;-73
2020/12/04 11:48:24;;;;;;;2.23;1.80;;;8.60;99.90;;;;;;5016446;28;20179;-74
2020/12/04 11:50:49;;;;;;;2.07;1.87;;;8.70;99.90;;;;;;5012159;28;20852;-71
2020/12/04 11:53:15;;;;;;;5.60;2.30;;;8.70;99.90;;;;;;5013306;28;20230;-72
2020/12/04 11:55:40;;;;;;;2.17;1.97;;;8.70;99.90;;;;;;5031234;28;20590;-72
2020/12/04 11:58:07;;;;;;;2.10;1.90;;;8.60;99.90;;;;;;5034707;28;20185;-72
2020/12/04 12:00:32;;;;;;;2.13;1.93;;;8.70;99.90;;;;;;5035320;28;20191;-73
2020/12/04 12:02:58;;;;;;;2.20;1.97;;;8.70;99.90;;;;;;5017069;28;20961;-73
2020/12/04 12:05:23;;;;;;;1.70;1.60;;;8.70;99.90;;;;;;5016846;28;20219;-73
2020/12/04 12:07:49;;;;;;;2.20;1.90;;;8.60;99.90;;;;;;5018501;28;20177;-73
2020/12/04 12:10:14;;;;;;;1.77;1.67;;;8.60;99.90;;;;;;5018774;28;20727;-73
2020/12/04 12:12:40;;;;;;;1.73;1.63;;;8.60;99.90;;;;;;5016389;28;20210;-74
2020/12/04 12:15:05;;;;;;;2.37;1.80;;;8.60;99.90;;;;;;5022156;28;20536;-74
2020/12/04 12:17:31;;;;;;;2.00;1.90;;;8.60;99.90;;;;;;5021130;28;20206;-74
2020/12/04 12:19:57;;;;;;;2.47;2.20;;;8.50;99.90;;;;;;5016691;28;20506;-74
2020/12/04 12:22:23;;;;;;;1.90;1.80;;;8.50;99.90;;;;;;5024813;28;20191;-74
2020/12/04 12:24:48;;;;;;;1.93;1.80;;;8.50;99.90;;;;;;5035516;28;20417;-74
2020/12/04 12:27:14;;;;;;;2.37;2.17;;;8.50;99.90;;;;;;5016963;28;20199;-73
2020/12/04 12:29:39;;;;;;;2.10;1.83;;;8.50;99.90;;;;;;5017191;28;20200;-74
2020/12/04 12:32:05;;;;;;;2.10;1.90;;;8.50;99.90;;;;;;5021154;28;20190;-74
2020/12/04 12:37:17;;;;;;;2.17;1.90;;;8.50;99.90;;;;;;5023704;28;20540;-73
2020/12/04 12:39:43;;;;;;;2.53;2.33;;;8.50;99.90;;;;;;5034135;28;20528;-73
2020/12/04 12:42:09;;;;;;;2.23;2.00;;;8.50;99.90;;;;;;5036500;28;20489;-73
2020/12/04 12:44:38;;;;;;;2.00;1.90;;;8.60;99.90;;;;;;5026160;28;20168;-73
2020/12/04 12:47:05;;;;;;;2.30;2.10;;;8.50;99.90;;;;;;5017282;28;20434;-74
2020/12/04 12:49:31;;;;;;;3.47;2.47;;;8.50;99.90;;;;;;5021213;28;20915;-73
2020/12/04 12:52:00;;;;;;;2.57;2.30;;;8.50;99.90;;;;;;5039797;28;20433;-73
2020/12/04 12:54:27;;;;;;;2.70;2.50;;;8.40;99.90;;;;;;5038791;28;20930;-73
2020/12/04 12:56:53;;;;;;;2.40;1.90;;;8.40;99.90;;;;;;5020246;28;20433;-72
2020/12/04 12:59:18;;;;;;;3.10;1.83;;;8.40;99.90;;;;;;5036438;28;20938;-72
2020/12/04 13:01:45;;;;;;;2.37;2.17;;;8.50;99.90;;;;;;5027384;28;20576;-72
2020/12/04 13:04:10;;;;;;;2.10;2.00;;;8.50;99.90;;;;;;5026903;28;20252;-72
2020/12/04 13:06:40;;;;;;;2.57;1.90;;;8.40;99.90;;;;;;5035824;28;20493;-73